Time;durP1;ratioP1;P1;durP2;ratioP2;P2;SDS_P1;SDS_P2;PMS_P1;PMS_P2;Temp;Humidity;BMP_temperature;BMP_pressure;BME280_temperature;BME280_humidity;BME280_pressure;Samples;Min_cycle;Max_cycle;Signal;HPM_P1;HPM_P2
2022/03/21 00:00:38;;;;;;;51.88;37.50;;;8.30;82.70;;;;;;5053299;28;20028;-78
2022/03/21 00:03:09;;;;;;;51.17;35.95;;;8.30;83.00;;;;;;5053601;28;20029;-78
2022/03/21 00:05:35;;;;;;;57.78;39.35;;;8.40;83.70;;;;;;5041787;28;20021;-78
2022/03/21 00:08:02;;;;;;;56.75;39.45;;;8.40;84.30;;;;;;5052884;28;20389;-77
2022/03/21 00:10:30;;;;;;;56.20;38.13;;;8.40;84.30;;;;;;5053455;28;20037;-77
2022/03/21 00:12:56;;;;;;;49.42;36.53;;;8.40;84.80;;;;;;5053152;28;20469;-77
2022/03/21 00:15:23;;;;;;;52.38;38.50;;;8.30;84.80;;;;;;5051559;28;20116;-78
2022/03/21 00:17:49;;;;;;;54.10;39.33;;;8.40;84.70;;;;;;5053159;28;20033;-78
2022/03/21 00:20:17;;;;;;;56.40;38.47;;;8.40;84.50;;;;;;5053021;28;20027;-78
2022/03/21 00:22:43;;;;;;;50.67;36.28;;;8.40;84.60;;;;;;5034615;28;20060;-78
2022/03/21 00:25:09;;;;;;;50.33;36.17;;;8.40;84.50;;;;;;5052674;28;20025;-78
2022/03/21 00:27:36;;;;;;;49.45;36.63;;;8.40;84.10;;;;;;5053547;28;20032;-79
2022/03/21 00:30:03;;;;;;;48.17;34.88;;;8.50;83.70;;;;;;5052993;28;20025;-78
2022/03/21 00:32:29;;;;;;;47.55;35.38;;;8.60;83.40;;;;;;5052175;28;20124;-78
2022/03/21 00:34:55;;;;;;;51.63;36.75;;;8.50;82.90;;;;;;5052911;28;20109;-78
2022/03/21 00:37:23;;;;;;;51.58;36.35;;;8.60;82.60;;;;;;5052519;28;20046;-78
2022/03/21 00:39:50;;;;;;;46.85;34.22;;;8.60;82.40;;;;;;5053116;28;20033;-79
2022/03/21 00:42:16;;;;;;;54.33;39.20;;;8.60;82.20;;;;;;5051808;28;20043;-78
2022/03/21 00:44:42;;;;;;;53.90;39.15;;;8.60;81.70;;;;;;5052816;28;20063;-78
2022/03/21 00:47:07;;;;;;;54.42;38.60;;;8.50;81.40;;;;;;5052747;28;20029;-79
2022/03/21 00:49:33;;;;;;;49.40;35.78;;;8.40;81.70;;;;;;5052893;28;20049;-78
2022/03/21 00:51:59;;;;;;;53.38;37.33;;;8.40;81.90;;;;;;5052438;28;20078;-78
2022/03/21 00:54:25;;;;;;;51.63;35.95;;;8.50;82.30;;;;;;5052887;28;20044;-78
2022/03/21 00:56:51;;;;;;;49.58;36.40;;;8.50;82.30;;;;;;5052775;28;20052;-78
2022/03/21 00:59:16;;;;;;;50.60;36.78;;;8.60;82.30;;;;;;5052157;28;20029;-78
2022/03/21 01:01:42;;;;;;;51.28;36.97;;;8.60;81.90;;;;;;5052802;28;20031;-78
2022/03/21 01:04:08;;;;;;;51.47;37.05;;;8.60;81.70;;;;;;5051918;28;20035;-78
2022/03/21 01:06:35;;;;;;;48.88;35.42;;;8.60;81.70;;;;;;5052558;28;20112;-78
2022/03/21 01:09:01;;;;;;;51.00;36.00;;;8.60;81.50;;;;;;5051760;28;20049;-78
2022/03/21 01:11:27;;;;;;;50.80;36.53;;;8.60;81.40;;;;;;5052769;28;20025;-78
2022/03/21 01:13:53;;;;;;;46.90;33.92;;;8.60;81.40;;;;;;5051704;28;20358;-78
2022/03/21 01:16:18;;;;;;;47.28;35.03;;;8.60;81.30;;;;;;5052519;28;20075;-78
2022/03/21 01:18:47;;;;;;;54.08;38.28;;;8.60;81.60;;;;;;5052262;28;20033;-78
2022/03/21 01:21:13;;;;;;;52.35;37.88;;;8.60;82.30;;;;;;5052670;28;20079;-78
2022/03/21 01:23:39;;;;;;;59.17;40.33;;;8.60;82.50;;;;;;5051810;28;20032;-78
2022/03/21 01:26:04;;;;;;;50.38;37.22;;;8.60;82.20;;;;;;5052186;28;20112;-78
2022/03/21 01:28:30;;;;;;;52.28;36.28;;;8.50;82.30;;;;;;5052300;28;20128;-78
2022/03/21 01:30:56;;;;;;;46.28;34.25;;;8.50;82.30;;;;;;5052704;28;20029;-78
2022/03/21 01:33:22;;;;;;;52.80;36.33;;;8.50;82.30;;;;;;5051668;28;20033;-78
2022/03/21 01:35:47;;;;;;;48.13;36.45;;;8.50;82.20;;;;;;5052426;28;20100;-78
2022/03/21 01:38:13;;;;;;;53.10;37.17;;;8.60;82.20;;;;;;5051927;28;20028;-78
2022/03/21 01:40:39;;;;;;;49.15;36.50;;;8.60;82.20;;;;;;5052549;28;20029;-78
2022/03/21 01:43:11;;;;;;;50.65;35.50;;;8.60;82.10;;;;;;5051800;28;20560;-78
2022/03/21 01:45:37;;;;;;;50.58;35.65;;;8.70;83.60;;;;;;5052286;28;20174;-78
2022/03/21 01:48:03;;;;;;;47.92;34.45;;;8.70;85.00;;;;;;5052003;28;20082;-78
2022/03/21 01:50:29;;;;;;;46.58;34.55;;;8.60;84.90;;;;;;5051973;28;20021;-78
2022/03/21 01:55:43;;;;;;;47.28;35.40;;;8.60;84.60;;;;;;5051518;28;20037;-78
2022/03/21 01:55:44;;;;;;;46.33;33.72;;;8.60;84.40;;;;;;5041071;28;20021;-78
2022/03/21 01:58:15;;;;;;;47.10;33.58;;;8.60;84.10;;;;;;5055619;28;20119;-78
2022/03/21 02:00:42;;;;;;;49.47;34.58;;;8.60;84.00;;;;;;5055861;28;20024;-78
2022/03/21 02:03:08;;;;;;;49.88;34.67;;;8.70;83.90;;;;;;5055177;28;20037;-77
2022/03/21 02:05:38;;;;;;;45.53;33.70;;;8.70;83.70;;;;;;5055820;28;20491;-78
2022/03/21 02:08:04;;;;;;;47.00;32.33;;;8.60;83.50;;;;;;5055096;28;20037;-78
2022/03/21 02:10:30;;;;;;;47.80;34.42;;;8.60;83.50;;;;;;5039541;28;20025;-78
2022/03/21 02:12:56;;;;;;;49.20;36.03;;;8.70;83.60;;;;;;5055200;28;20443;-78
2022/03/21 02:15:22;;;;;;;49.35;35.33;;;8.60;83.70;;;;;;5055252;28;20033;-80
2022/03/21 02:17:52;;;;;;;48.03;34.78;;;8.50;84.00;;;;;;5055662;28;20080;-80
2022/03/21 02:20:18;;;;;;;46.10;32.42;;;8.40;84.50;;;;;;5056019;28;20021;-80
2022/03/21 02:23:21;;;;;;;48.10;33.47;;;8.40;85.20;;;;;;5055481;28;20029;-81
2022/03/21 02:25:48;;;;;;;41.33;30.42;;;8.40;85.90;;;;;;5041415;28;20025;-81
2022/03/21 02:28:16;;;;;;;43.92;31.35;;;8.50;85.50;;;;;;5054718;28;20033;-80
2022/03/21 02:30:45;;;;;;;41.13;30.75;;;8.50;85.50;;;;;;5055533;28;20021;-80
2022/03/21 02:33:12;;;;;;;45.63;32.70;;;8.50;85.40;;;;;;5054364;28;20068;-81
2022/03/21 02:35:39;;;;;;;50.30;33.97;;;8.50;85.30;;;;;;5055156;28;20048;-80
2022/03/21 02:38:06;;;;;;;46.53;32.95;;;8.40;85.60;;;;;;5054636;28;20637;-81
2022/03/21 02:40:32;;;;;;;46.45;32.80;;;8.20;86.30;;;;;;5039042;28;20021;-81
2022/03/21 02:42:58;;;;;;;43.05;31.42;;;8.20;87.10;;;;;;5054868;28;20547;-80
2022/03/21 02:45:24;;;;;;;41.92;29.17;;;8.10;87.20;;;;;;5054533;28;20437;-81
2022/03/21 02:47:49;;;;;;;39.92;28.88;;;8.20;87.10;;;;;;5054956;28;20484;-81
2022/03/21 02:50:30;;;;;;;40.90;29.30;;;8.30;87.20;;;;;;5054572;28;20039;-81
2022/03/21 02:52:57;;;;;;;40.83;29.52;;;8.30;86.80;;;;;;5043515;28;20128;-79
2022/03/21 02:55:23;;;;;;;39.17;28.42;;;8.30;87.00;;;;;;5051475;28;20040;-78
2022/03/21 02:57:49;;;;;;;37.85;25.83;;;8.30;87.10;;;;;;5036530;28;20033;-78
2022/03/21 03:00:15;;;;;;;37.97;26.42;;;8.30;87.70;;;;;;5050494;28;20396;-78
2022/03/21 03:02:40;;;;;;;35.63;25.00;;;8.30;87.70;;;;;;5048864;28;20111;-78
2022/03/21 03:05:07;;;;;;;36.53;24.73;;;8.30;89.00;;;;;;5034873;28;20171;-78
2022/03/21 03:07:32;;;;;;;34.17;24.55;;;8.40;90.40;;;;;;5035931;28;20049;-78
2022/03/21 03:09:58;;;;;;;35.75;25.10;;;8.40;90.60;;;;;;5052751;28;20044;-78
2022/03/21 03:12:23;;;;;;;36.55;23.83;;;8.30;90.70;;;;;;5049445;28;20071;-78
2022/03/21 03:14:49;;;;;;;32.60;23.55;;;8.30;91.40;;;;;;5036068;28;20052;-78
2022/03/21 03:17:14;;;;;;;31.02;22.73;;;8.30;91.70;;;;;;5053212;28;20021;-78
2022/03/21 03:19:40;;;;;;;29.83;21.70;;;8.20;91.80;;;;;;5053991;28;20029;-78
2022/03/21 03:22:08;;;;;;;36.95;22.92;;;8.20;92.00;;;;;;5054136;28;20116;-78
2022/03/21 03:24:34;;;;;;;32.10;22.27;;;8.20;92.10;;;;;;5054798;28;20063;-78
2022/03/21 03:27:00;;;;;;;33.22;22.63;;;8.10;92.70;;;;;;5054301;28;20345;-78
2022/03/21 03:29:26;;;;;;;34.50;23.30;;;8.10;93.00;;;;;;5054294;28;20033;-78
2022/03/21 03:31:51;;;;;;;32.97;23.15;;;8.00;93.10;;;;;;5054161;28;20456;-79
2022/03/21 03:34:17;;;;;;;35.33;23.20;;;8.00;93.00;;;;;;5053922;28;20433;-78
2022/03/21 03:36:43;;;;;;;34.95;22.00;;;8.00;93.00;;;;;;5054258;28;20411;-78
2022/03/21 03:39:09;;;;;;;34.30;21.73;;;8.10;93.50;;;;;;5053549;28;20039;-78
2022/03/21 03:41:34;;;;;;;39.97;23.02;;;8.00;93.30;;;;;;5053835;28;20029;-78
2022/03/21 03:44:01;;;;;;;33.28;22.58;;;8.10;93.30;;;;;;5053907;28;20041;-78
2022/03/21 03:46:26;;;;;;;29.52;21.27;;;8.10;93.10;;;;;;5054072;28;20033;-78
2022/03/21 03:48:54;;;;;;;29.88;21.73;;;8.10;93.10;;;;;;5053649;28;20100;-78
2022/03/21 03:51:20;;;;;;;28.67;20.63;;;8.10;93.10;;;;;;5053778;28;20123;-78
2022/03/21 03:53:46;;;;;;;29.60;21.33;;;8.20;93.00;;;;;;5053134;28;20087;-78
2022/03/21 03:56:11;;;;;;;27.85;20.20;;;8.20;92.80;;;;;;5053892;28;20064;-78
2022/03/21 03:58:38;;;;;;;28.83;20.13;;;8.20;92.60;;;;;;5053107;28;20076;-78
2022/03/21 04:01:06;;;;;;;31.80;21.38;;;8.30;92.80;;;;;;5053411;28;20029;-78
2022/03/21 04:03:44;;;;;;;29.88;19.67;;;8.30;92.60;;;;;;5052850;28;20017;-78
2022/03/21 04:06:11;;;;;;;31.83;19.58;;;8.30;92.60;;;;;;5053532;28;20033;-78
2022/03/21 04:08:36;;;;;;;27.10;19.13;;;8.30;92.90;;;;;;5052693;28;20052;-78
2022/03/21 04:11:02;;;;;;;29.42;19.17;;;8.30;92.90;;;;;;5053401;28;20016;-78
2022/03/21 04:13:28;;;;;;;27.55;18.08;;;8.30;93.20;;;;;;5052279;28;20047;-78
2022/03/21 04:15:53;;;;;;;29.27;18.58;;;8.30;93.10;;;;;;5053127;28;20021;-78
2022/03/21 04:18:20;;;;;;;25.50;17.90;;;8.30;93.00;;;;;;5053036;28;20032;-78
2022/03/21 04:20:46;;;;;;;22.95;16.23;;;8.30;92.90;;;;;;5053312;28;20035;-78
2022/03/21 04:23:12;;;;;;;23.88;17.10;;;8.40;92.80;;;;;;5052625;28;20060;-78
2022/03/21 04:25:38;;;;;;;25.02;17.40;;;8.30;92.80;;;;;;5053233;28;20028;-78
2022/03/21 04:28:17;;;;;;;26.30;18.40;;;8.30;92.70;;;;;;5053375;28;20509;-77
2022/03/21 04:30:43;;;;;;;25.17;16.98;;;8.30;92.60;;;;;;5038888;28;20029;-78
2022/03/21 04:33:09;;;;;;;26.23;17.58;;;8.30;92.60;;;;;;5052009;28;20037;-79
2022/03/21 04:35:40;;;;;;;25.40;16.48;;;8.30;92.60;;;;;;5053351;28;20032;-79
2022/03/21 04:38:13;;;;;;;21.38;15.82;;;8.30;92.60;;;;;;5052976;28;20104;-79
2022/03/21 04:40:44;;;;;;;23.77;17.50;;;8.40;92.60;;;;;;5052946;28;20074;-79
2022/03/21 04:43:11;;;;;;;24.52;17.42;;;8.40;92.50;;;;;;5052727;28;20090;-79
2022/03/21 04:45:37;;;;;;;25.40;17.70;;;8.40;92.40;;;;;;5052866;28;20049;-79
2022/03/21 04:48:04;;;;;;;27.38;19.10;;;8.50;92.40;;;;;;5052424;28;20460;-79
2022/03/21 04:50:30;;;;;;;25.65;16.88;;;8.50;92.30;;;;;;5052706;28;20025;-79
2022/03/21 04:52:56;;;;;;;22.63;16.48;;;8.50;92.30;;;;;;5052481;28;20033;-79
2022/03/21 04:55:21;;;;;;;22.42;16.60;;;8.50;92.20;;;;;;5051721;28;20488;-79
2022/03/21 04:57:47;;;;;;;24.52;17.00;;;8.50;92.10;;;;;;5053110;28;20043;-80
2022/03/21 05:00:13;;;;;;;25.80;17.77;;;8.50;92.00;;;;;;5052253;28;20025;-79
2022/03/21 05:02:39;;;;;;;27.27;18.05;;;8.50;91.90;;;;;;5052731;28;20941;-79
2022/03/21 05:05:05;;;;;;;27.05;18.15;;;8.60;91.80;;;;;;5052618;28;20412;-79
2022/03/21 05:07:31;;;;;;;26.40;17.88;;;8.60;91.80;;;;;;5052542;28;20556;-79
2022/03/21 05:09:56;;;;;;;24.75;17.00;;;8.50;91.60;;;;;;5052585;28;20111;-79
2022/03/21 05:12:23;;;;;;;23.38;16.20;;;8.50;91.60;;;;;;5052414;28;20087;-79
2022/03/21 05:14:48;;;;;;;26.25;18.13;;;8.50;91.60;;;;;;5052321;28;20061;-79
2022/03/21 05:17:17;;;;;;;24.02;17.50;;;8.50;91.70;;;;;;5052815;28;20053;-79
2022/03/21 05:19:44;;;;;;;25.35;18.05;;;8.50;91.90;;;;;;5052647;28;20104;-79
2022/03/21 05:22:10;;;;;;;24.42;16.55;;;8.50;91.90;;;;;;5052569;28;20037;-78
2022/03/21 05:35:54;;;;;;;25.92;18.65;;;8.40;92.10;;;;;;5040676;28;20040;-78
2022/03/21 05:35:57;;;;;;;26.70;18.98;;;8.30;92.30;;;;;;5056279;28;20072;-78
2022/03/21 05:38:24;;;;;;;25.73;17.40;;;8.30;92.30;;;;;;5056213;28;20443;-78
2022/03/21 05:40:51;;;;;;;26.75;18.05;;;8.20;92.60;;;;;;5055880;28;20060;-78
2022/03/21 05:43:17;;;;;;;30.73;18.88;;;8.20;92.50;;;;;;5055376;28;20044;-78
2022/03/21 05:45:43;;;;;;;25.70;17.77;;;8.20;92.40;;;;;;5056137;28;20104;-78
2022/03/21 05:50:53;;;;;;;31.10;19.15;;;8.20;92.30;;;;;;5055907;28;20490;-78
2022/03/21 05:53:18;;;;;;;26.17;18.48;;;8.10;92.20;;;;;;5055856;28;20065;-78
2022/03/21 05:55:45;;;;;;;27.17;17.15;;;8.10;92.30;;;;;;5055320;28;20373;-78
2022/03/21 05:58:11;;;;;;;24.05;17.67;;;8.10;92.50;;;;;;5055955;28;20112;-78
2022/03/21 06:00:37;;;;;;;27.08;18.70;;;8.20;92.50;;;;;;5055443;28;20025;-80
2022/03/21 06:03:04;;;;;;;28.20;19.40;;;8.10;92.30;;;;;;5055387;28;20021;-76
2022/03/21 06:05:30;;;;;;;27.98;19.30;;;8.10;92.40;;;;;;5055612;28;20077;-75
2022/03/21 06:07:55;;;;;;;27.40;17.58;;;8.10;92.40;;;;;;5055181;28;20048;-75
2022/03/21 06:10:21;;;;;;;29.38;18.90;;;8.10;92.40;;;;;;5054793;28;20089;-75
2022/03/21 06:12:48;;;;;;;25.80;17.75;;;8.10;92.40;;;;;;5054961;28;20128;-75
2022/03/21 06:15:14;;;;;;;24.83;17.00;;;8.10;92.50;;;;;;5055066;28;20025;-76
2022/03/21 06:17:41;;;;;;;27.50;17.30;;;8.10;92.50;;;;;;5055333;28;20021;-76
2022/03/21 06:20:12;;;;;;;28.67;19.75;;;8.10;92.40;;;;;;5055002;28;20025;-75
2022/03/21 06:22:38;;;;;;;24.45;17.25;;;8.10;92.50;;;;;;5055358;28;20059;-76
2022/03/21 06:25:05;;;;;;;27.00;17.83;;;8.20;92.60;;;;;;5054806;28;20041;-75
2022/03/21 06:27:31;;;;;;;28.08;18.95;;;8.20;92.60;;;;;;5055632;28;20029;-76
2022/03/21 06:29:57;;;;;;;29.25;19.33;;;8.30;92.50;;;;;;5054951;28;20040;-76
2022/03/21 06:32:23;;;;;;;29.92;20.05;;;8.30;92.50;;;;;;5054861;28;20411;-75
2022/03/21 06:34:49;;;;;;;29.42;19.38;;;8.40;93.00;;;;;;5053505;28;20021;-76
2022/03/21 06:37:15;;;;;;;31.20;20.02;;;8.40;92.70;;;;;;5053766;28;20040;-75
2022/03/21 06:39:40;;;;;;;32.53;20.20;;;8.50;92.80;;;;;;5052993;28;20451;-78
2022/03/21 06:42:06;;;;;;;30.35;19.83;;;8.50;92.90;;;;;;5036648;28;20104;-77
2022/03/21 06:44:32;;;;;;;26.50;18.55;;;8.60;92.90;;;;;;5047258;28;20388;-76
2022/03/21 06:46:58;;;;;;;30.75;19.33;;;8.60;92.80;;;;;;5051811;28;20029;-75
2022/03/21 06:49:29;;;;;;;29.70;20.95;;;8.70;93.00;;;;;;5051614;28;20170;-76
2022/03/21 06:51:56;;;;;;;31.90;21.13;;;8.70;92.80;;;;;;5055282;28;20365;-77
2022/03/21 06:54:22;;;;;;;32.50;21.08;;;8.70;92.80;;;;;;5054639;28;20025;-77
2022/03/21 06:56:47;;;;;;;30.60;20.50;;;8.70;92.80;;;;;;5055070;28;20032;-77
2022/03/21 06:59:13;;;;;;;34.22;21.10;;;8.80;92.70;;;;;;5054663;28;20025;-77
2022/03/21 07:01:39;;;;;;;37.08;24.33;;;8.90;92.70;;;;;;5054970;28;20388;-77
2022/03/21 07:04:05;;;;;;;32.40;22.63;;;8.90;92.90;;;;;;5054706;28;20043;-77
2022/03/21 07:06:30;;;;;;;33.50;21.92;;;8.90;93.00;;;;;;5055030;28;20025;-77
2022/03/21 07:08:56;;;;;;;35.53;23.30;;;9.00;93.10;;;;;;5054075;28;20052;-77
2022/03/21 07:11:22;;;;;;;33.55;22.88;;;9.00;93.20;;;;;;5053600;28;20052;-77
2022/03/21 07:13:48;;;;;;;36.88;22.33;;;9.00;93.20;;;;;;5054096;28;20037;-77
2022/03/21 07:16:16;;;;;;;36.47;23.50;;;9.10;93.20;;;;;;5053922;28;20025;-77
2022/03/21 07:18:45;;;;;;;49.05;26.45;;;9.20;93.20;;;;;;5053816;28;20037;-77
2022/03/21 07:21:15;;;;;;;36.50;24.60;;;9.10;93.30;;;;;;5053460;28;20071;-78
2022/03/21 07:23:40;;;;;;;40.05;25.35;;;9.10;93.80;;;;;;5054067;28;20017;-78
2022/03/21 07:26:06;;;;;;;37.65;25.63;;;9.10;93.80;;;;;;5054070;28;20048;-76
2022/03/21 07:28:32;;;;;;;41.50;26.02;;;9.10;94.00;;;;;;5053773;28;20025;-78
2022/03/21 07:30:57;;;;;;;38.45;25.25;;;9.20;94.20;;;;;;5054032;28;20189;-75
2022/03/21 07:33:24;;;;;;;40.92;26.55;;;9.20;94.30;;;;;;5054079;28;20055;-77
2022/03/21 07:35:50;;;;;;;40.92;26.88;;;9.30;94.40;;;;;;5054204;28;20017;-79
2022/03/21 07:38:18;;;;;;;39.03;24.95;;;9.40;94.10;;;;;;5054064;28;20036;-78
2022/03/21 07:40:46;;;;;;;40.40;26.33;;;9.40;94.20;;;;;;5053130;28;20025;-81
2022/03/21 07:43:12;;;;;;;40.53;26.83;;;9.50;94.20;;;;;;5049118;28;20035;-78
2022/03/21 07:48:42;;;;;;;41.83;24.77;;;9.60;93.60;;;;;;5000045;28;20026;-78
2022/03/21 07:51:08;;;;;;;40.38;25.92;;;9.80;93.80;;;;;;4993234;28;20394;-78
2022/03/21 07:53:34;;;;;;;39.70;26.05;;;9.80;93.70;;;;;;5019892;28;20071;-82
2022/03/21 07:56:00;;;;;;;39.90;25.60;;;9.80;93.60;;;;;;5052493;28;20021;-81
2022/03/21 07:58:26;;;;;;;35.72;25.58;;;9.80;93.80;;;;;;5052287;28;20027;-79
2022/03/21 08:00:52;;;;;;;39.90;23.63;;;9.90;93.50;;;;;;5052328;28;20025;-80
2022/03/21 08:03:18;;;;;;;37.80;23.70;;;10.00;92.90;;;;;;5051930;28;20485;-80
2022/03/21 08:05:43;;;;;;;38.33;24.27;;;10.10;92.80;;;;;;5052566;28;20523;-78
2022/03/21 08:08:09;;;;;;;38.50;23.60;;;10.30;92.70;;;;;;5051661;28;20462;-79
2022/03/21 08:10:35;;;;;;;35.83;22.00;;;10.40;92.40;;;;;;5052305;28;20104;-80
2022/03/21 08:13:01;;;;;;;37.10;23.42;;;10.50;92.10;;;;;;5041854;28;20033;-78
2022/03/21 08:15:26;;;;;;;34.83;21.83;;;10.50;91.50;;;;;;5049759;28;20535;-78
2022/03/21 08:18:11;;;;;;;35.97;22.27;;;10.50;91.50;;;;;;5043504;28;20500;-79
2022/03/21 08:20:39;;;;;;;34.17;22.08;;;10.60;90.90;;;;;;5040995;28;20025;-82
2022/03/21 08:23:11;;;;;;;40.67;23.63;;;10.60;91.20;;;;;;5043405;28;20040;-83
2022/03/21 08:25:37;;;;;;;35.03;21.92;;;10.70;91.10;;;;;;5046411;28;20021;-83
2022/03/21 08:28:07;;;;;;;36.33;22.35;;;10.80;90.70;;;;;;5051421;28;20428;-83
2022/03/21 08:30:35;;;;;;;41.85;20.75;;;10.90;90.00;;;;;;5045736;28;20037;-85
2022/03/21 08:33:02;;;;;;;38.03;21.55;;;10.80;90.10;;;;;;5050860;28;20132;-83
2022/03/21 08:35:28;;;;;;;33.50;20.55;;;10.90;90.00;;;;;;5044280;28;20231;-83
2022/03/21 08:37:54;;;;;;;30.73;19.98;;;11.10;89.60;;;;;;5050789;28;20028;-83
2022/03/21 08:40:19;;;;;;;37.08;21.02;;;11.30;89.00;;;;;;5052071;28;20031;-84
2022/03/21 08:42:46;;;;;;;34.35;19.88;;;11.50;88.60;;;;;;5051092;28;20055;-82
2022/03/21 08:45:13;;;;;;;29.30;18.60;;;11.70;88.20;;;;;;5051298;28;20037;-83
2022/03/21 08:47:38;;;;;;;28.40;17.95;;;11.90;86.10;;;;;;5051297;28;20392;-82
2022/03/21 08:50:06;;;;;;;33.10;20.92;;;12.00;84.80;;;;;;5051482;28;20044;-84
2022/03/21 08:52:32;;;;;;;35.88;20.35;;;12.20;82.90;;;;;;5050442;28;20040;-81
2022/03/21 08:54:58;;;;;;;30.85;18.98;;;12.30;82.90;;;;;;5051408;28;20147;-83
2022/03/21 08:57:23;;;;;;;35.80;21.45;;;12.40;82.60;;;;;;5051576;28;20112;-79
2022/03/21 08:59:52;;;;;;;29.08;20.33;;;12.60;81.50;;;;;;5051360;28;20487;-79
2022/03/21 09:02:18;;;;;;;33.10;19.52;;;12.50;81.10;;;;;;5050735;28;20029;-81
2022/03/21 09:04:44;;;;;;;28.38;18.23;;;12.70;81.60;;;;;;5054923;28;20033;-79
2022/03/21 09:07:12;;;;;;;26.80;17.45;;;12.90;81.50;;;;;;5055629;28;20025;-80
2022/03/21 09:09:38;;;;;;;32.08;18.50;;;13.00;78.80;;;;;;5055192;28;20051;-80
2022/03/21 09:12:03;;;;;;;24.75;15.73;;;13.10;77.40;;;;;;5054934;28;20021;-83
2022/03/21 09:14:29;;;;;;;23.05;14.95;;;13.20;77.00;;;;;;5055170;28;20029;-80
2022/03/21 09:16:56;;;;;;;24.45;15.45;;;13.40;76.00;;;;;;5055378;28;20032;-80
2022/03/21 09:19:23;;;;;;;19.92;13.55;;;13.60;74.80;;;;;;5055499;28;21445;-81
2022/03/21 09:21:50;;;;;;;23.70;11.82;;;13.80;73.80;;;;;;5055335;28;20036;-81
2022/03/21 09:24:15;;;;;;;19.40;11.98;;;13.90;72.90;;;;;;5055283;28;20425;-81
2022/03/21 09:26:44;;;;;;;22.33;12.30;;;14.00;69.80;;;;;;5055367;28;20060;-80
2022/03/21 09:29:12;;;;;;;24.08;13.10;;;14.10;70.50;;;;;;5053995;28;20037;-78
2022/03/21 09:31:39;;;;;;;22.73;13.45;;;14.20;70.30;;;;;;5055080;28;20082;-78
2022/03/21 09:34:10;;;;;;;29.88;16.27;;;14.30;69.40;;;;;;5055075;28;20112;-79
2022/03/21 09:36:36;;;;;;;27.75;15.57;;;14.50;68.30;;;;;;5055016;28;20021;-77
2022/03/21 09:39:03;;;;;;;26.08;15.68;;;14.60;67.90;;;;;;5055369;28;20082;-77
2022/03/21 09:41:30;;;;;;;27.83;15.85;;;14.70;68.00;;;;;;5054182;28;20025;-78
2022/03/21 09:43:58;;;;;;;26.95;16.50;;;14.80;68.20;;;;;;5054886;28;20040;-76
2022/03/21 09:46:24;;;;;;;28.25;15.90;;;14.90;66.40;;;;;;5052141;28;20082;-79
2022/03/21 09:48:51;;;;;;;29.75;17.55;;;14.90;66.60;;;;;;5054646;28;20537;-78
2022/03/21 09:51:27;;;;;;;29.27;16.55;;;15.00;65.50;;;;;;5054549;28;20155;-79
2022/03/21 09:53:57;;;;;;;26.95;16.83;;;15.10;65.30;;;;;;5054235;28;20544;-79
2022/03/21 09:56:25;;;;;;;26.45;17.38;;;15.20;66.40;;;;;;5054318;28;20037;-79
2022/03/21 09:58:53;;;;;;;30.38;17.77;;;15.30;65.20;;;;;;5052003;28;20120;-77
2022/03/21 10:01:19;;;;;;;27.27;17.67;;;15.40;65.90;;;;;;5054563;28;20108;-80
2022/03/21 10:03:44;;;;;;;26.63;16.35;;;15.40;64.80;;;;;;5054660;28;20487;-81
2022/03/21 10:06:34;;;;;;;25.08;14.30;;;15.40;63.60;;;;;;5054482;28;20025;-80
2022/03/21 10:09:16;;;;;;;23.48;16.10;;;15.50;62.90;;;;;;5054551;28;20084;-77
2022/03/21 10:11:51;;;;;;;25.10;15.88;;;15.60;62.70;;;;;;5054038;28;20025;-78
2022/03/21 10:14:21;;;;;;;24.70;16.10;;;15.70;62.80;;;;;;5053754;28;20037;-77
2022/03/21 10:17:09;;;;;;;23.70;16.33;;;15.80;63.20;;;;;;5054199;28;20025;-79
2022/03/21 10:19:43;;;;;;;24.42;16.15;;;15.90;62.60;;;;;;5053848;28;20075;-79
2022/03/21 10:22:12;;;;;;;25.75;15.85;;;15.90;62.40;;;;;;5054428;28;20029;-79
2022/03/21 10:24:40;;;;;;;25.52;16.05;;;16.00;61.90;;;;;;5054674;28;20048;-79
2022/03/21 10:27:06;;;;;;;28.15;15.90;;;16.10;61.70;;;;;;5051375;28;20025;-80
2022/03/21 10:29:48;;;;;;;23.55;15.25;;;16.30;61.20;;;;;;5053853;28;20384;-78
2022/03/21 10:32:30;;;;;;;24.77;16.17;;;16.40;60.50;;;;;;5053911;28;20041;-80
2022/03/21 10:35:09;;;;;;;27.17;15.98;;;16.50;59.80;;;;;;5053930;28;20097;-78
2022/03/21 10:37:44;;;;;;;21.45;14.77;;;16.50;60.30;;;;;;5053230;28;20115;-79
2022/03/21 10:40:30;;;;;;;27.60;16.23;;;16.50;59.90;;;;;;5053714;28;20036;-79
2022/03/21 10:43:07;;;;;;;20.60;12.77;;;16.60;60.90;;;;;;5051214;28;20430;-76
2022/03/21 10:45:41;;;;;;;17.92;11.93;;;16.80;64.60;;;;;;5041298;28;20104;-76
2022/03/21 10:48:10;;;;;;;25.50;15.05;;;17.20;65.50;;;;;;5036983;28;20049;-76
2022/03/21 10:50:44;;;;;;;24.63;14.82;;;17.50;62.50;;;;;;5037364;28;20017;-77
2022/03/21 10:53:15;;;;;;;22.67;14.82;;;17.70;61.70;;;;;;5040061;28;20459;-76
2022/03/21 10:56:16;;;;;;;22.77;15.95;;;18.00;60.80;;;;;;5044567;28;20380;-76
2022/03/21 10:58:45;;;;;;;28.02;18.17;;;18.20;59.80;;;;;;5053192;28;20116;-77
2022/03/21 11:01:18;;;;;;;29.92;18.17;;;18.30;58.70;;;;;;5053523;28;20036;-74
2022/03/21 11:03:49;;;;;;;24.83;17.23;;;18.20;58.10;;;;;;5053074;28;20391;-80
2022/03/21 11:06:15;;;;;;;27.17;16.98;;;18.00;59.20;;;;;;5052852;28;20017;-82
2022/03/21 11:08:41;;;;;;;25.80;16.15;;;18.00;58.20;;;;;;5053744;28;20124;-81
2022/03/21 11:11:09;;;;;;;22.48;16.17;;;18.00;58.30;;;;;;5053663;28;20029;-83
2022/03/21 11:13:36;;;;;;;26.23;17.52;;;18.10;57.60;;;;;;5054405;28;20025;-84
2022/03/21 11:16:03;;;;;;;26.73;17.17;;;18.20;58.50;;;;;;5054527;28;20067;-86
2022/03/21 11:18:29;;;;;;;30.17;17.52;;;18.30;56.90;;;;;;5053917;28;20060;-85
2022/03/21 11:20:59;;;;;;;30.52;18.50;;;18.30;56.60;;;;;;5053677;28;20017;-85
2022/03/21 11:23:27;;;;;;;27.83;18.33;;;18.30;56.50;;;;;;5055025;28;20055;-85
2022/03/21 11:26:00;;;;;;;27.67;17.02;;;18.30;56.00;;;;;;5053922;28;20413;-85
2022/03/21 11:28:48;;;;;;;24.92;16.67;;;18.40;56.40;;;;;;5054504;28;20029;-84
2022/03/21 11:31:45;;;;;;;23.45;15.38;;;18.50;56.20;;;;;;5054633;28;20025;-85
2022/03/21 11:34:27;;;;;;;27.05;17.35;;;18.60;56.50;;;;;;5053797;28;20119;-85
2022/03/21 11:36:58;;;;;;;27.98;17.77;;;18.70;55.80;;;;;;5054040;28;20025;-86
2022/03/21 11:39:25;;;;;;;26.60;17.08;;;18.50;56.70;;;;;;5054320;28;20025;-84
2022/03/21 11:42:06;;;;;;;23.58;16.52;;;18.50;56.90;;;;;;5054686;28;20109;-85
2022/03/21 11:44:32;;;;;;;23.42;16.48;;;18.60;55.70;;;;;;5054564;28;20028;-87
2022/03/21 11:47:19;;;;;;;25.85;17.67;;;18.70;54.90;;;;;;5054163;28;20031;-86
2022/03/21 11:49:46;;;;;;;28.35;17.98;;;18.80;55.70;;;;;;5054004;28;20471;-85
2022/03/21 11:52:12;;;;;;;26.38;16.77;;;18.60;56.70;;;;;;5053671;28;20025;-84
2022/03/21 11:54:38;;;;;;;23.60;15.77;;;18.40;56.70;;;;;;5054060;28;20112;-84
2022/03/21 11:57:09;;;;;;;22.42;16.02;;;18.40;55.30;;;;;;5053582;28;20056;-84
2022/03/21 11:59:34;;;;;;;25.67;15.95;;;18.60;55.10;;;;;;5054010;28;20029;-84
2022/03/21 12:02:12;;;;;;;35.03;16.42;;;18.70;55.30;;;;;;5053986;28;20047;-83
2022/03/21 12:04:39;;;;;;;29.08;15.43;;;18.90;55.00;;;;;;5053929;28;20021;-83
2022/03/21 12:07:14;;;;;;;26.25;16.33;;;19.10;55.90;;;;;;5053667;28;20063;-83
2022/03/21 12:09:50;;;;;;;23.50;16.38;;;19.20;54.70;;;;;;5053756;28;20040;-83
2022/03/21 12:12:17;;;;;;;24.33;16.48;;;19.30;54.40;;;;;;5053571;28;20041;-83
2022/03/21 12:14:54;;;;;;;27.20;15.63;;;19.30;53.60;;;;;;5053464;28;20045;-84
2022/03/21 12:17:22;;;;;;;24.02;16.30;;;19.40;53.50;;;;;;5053614;28;20025;-83
2022/03/21 12:19:48;;;;;;;23.17;16.70;;;19.40;53.50;;;;;;5053326;28;20021;-83
2022/03/21 12:23:02;;;;;;;27.63;16.83;;;19.50;54.30;;;;;;5053226;28;20036;-83
2022/03/21 12:25:31;;;;;;;26.58;16.58;;;19.60;54.00;;;;;;5052087;28;20395;-82
2022/03/21 12:27:58;;;;;;;23.27;15.77;;;19.70;53.80;;;;;;5053734;28;20027;-82
2022/03/21 12:30:27;;;;;;;21.42;14.90;;;19.80;53.90;;;;;;5052748;28;20439;-79
2022/03/21 12:32:53;;;;;;;24.40;14.57;;;19.90;52.80;;;;;;5053133;28;20037;-86
2022/03/21 12:35:31;;;;;;;24.80;16.08;;;20.00;52.90;;;;;;5053117;28;20025;-84
2022/03/21 12:38:01;;;;;;;22.92;15.38;;;20.10;52.90;;;;;;5052872;28;20025;-81
2022/03/21 12:40:26;;;;;;;25.80;17.08;;;20.20;54.00;;;;;;5052971;28;20113;-81
2022/03/21 12:42:54;;;;;;;22.98;15.65;;;20.10;53.50;;;;;;5052937;28;20108;-77
2022/03/21 12:45:20;;;;;;;28.15;16.50;;;20.10;53.40;;;;;;5053246;28;20070;-77
2022/03/21 12:47:47;;;;;;;29.08;16.90;;;20.10;53.30;;;;;;5052575;28;20025;-78
2022/03/21 12:50:24;;;;;;;29.08;16.50;;;20.20;52.60;;;;;;5052700;28;20112;-77
2022/03/21 12:52:58;;;;;;;20.90;14.20;;;20.20;52.40;;;;;;5052397;28;20440;-78